sensor_id;sensor_type;location;lat;lon;timestamp;temperature;humidity
24468;DHT22;12634;50.852;5.676;2023-06-26T00:02:20;22.40;99.90
24468;DHT22;12634;50.852;5.676;2023-06-26T00:04:47;22.30;99.90
24468;DHT22;12634;50.852;5.676;2023-06-26T00:07:14;22.20;99.90
24468;DHT22;12634;50.852;5.676;2023-06-26T00:09:41;22.10;99.90
24468;DHT22;12634;50.852;5.676;2023-06-26T00:12:09;21.90;99.90
24468;DHT22;12634;50.852;5.676;2023-06-26T00:14:36;22.00;99.90
24468;DHT22;12634;50.852;5.676;2023-06-26T00:17:05;22.10;99.90
24468;DHT22;12634;50.852;5.676;2023-06-26T00:19:32;22.10;99.90
24468;DHT22;12634;50.852;5.676;2023-06-26T00:21:59;22.10;99.90
24468;DHT22;12634;50.852;5.676;2023-06-26T00:24:26;22.00;99.90
24468;DHT22;12634;50.852;5.676;2023-06-26T00:26:53;22.30;99.90
24468;DHT22;12634;50.852;5.676;2023-06-26T00:29:20;22.30;99.90
24468;DHT22;12634;50.852;5.676;2023-06-26T00:31:48;22.30;99.90
24468;DHT22;12634;50.852;5.676;2023-06-26T00:34:16;22.10;99.90
24468;DHT22;12634;50.852;5.676;2023-06-26T00:36:45;22.40;99.90
24468;DHT22;12634;50.852;5.676;2023-06-26T00:39:12;22.30;99.90
24468;DHT22;12634;50.852;5.676;2023-06-26T00:41:40;22.30;99.90
24468;DHT22;12634;50.852;5.676;2023-06-26T00:44:07;22.30;99.90
24468;DHT22;12634;50.852;5.676;2023-06-26T00:46:35;22.10;99.90
24468;DHT22;12634;50.852;5.676;2023-06-26T00:49:03;22.10;99.90
24468;DHT22;12634;50.852;5.676;2023-06-26T00:51:31;22.00;99.90
24468;DHT22;12634;50.852;5.676;2023-06-26T00:53:59;21.90;99.90
24468;DHT22;12634;50.852;5.676;2023-06-26T00:56:26;22.00;99.90
24468;DHT22;12634;50.852;5.676;2023-06-26T00:58:54;22.00;99.90
24468;DHT22;12634;50.852;5.676;2023-06-26T01:01:22;22.00;99.90
24468;DHT22;12634;50.852;5.676;2023-06-26T01:03:52;22.00;99.90
24468;DHT22;12634;50.852;5.676;2023-06-26T01:06:21;22.00;99.90
24468;DHT22;12634;50.852;5.676;2023-06-26T01:08:52;21.90;99.90
24468;DHT22;12634;50.852;5.676;2023-06-26T01:11:19;22.00;99.90
24468;DHT22;12634;50.852;5.676;2023-06-26T01:13:47;22.00;99.90
24468;DHT22;12634;50.852;5.676;2023-06-26T01:16:16;22.00;99.90
24468;DHT22;12634;50.852;5.676;2023-06-26T01:18:46;21.90;99.90
24468;DHT22;12634;50.852;5.676;2023-06-26T01:21:14;21.70;99.90
24468;DHT22;12634;50.852;5.676;2023-06-26T01:23:54;21.70;99.90
24468;DHT22;12634;50.852;5.676;2023-06-26T01:26:27;21.70;99.90
24468;DHT22;12634;50.852;5.676;2023-06-26T01:28:57;21.60;99.90
24468;DHT22;12634;50.852;5.676;2023-06-26T01:31:27;21.60;99.90
24468;DHT22;12634;50.852;5.676;2023-06-26T01:33:57;21.60;99.90
24468;DHT22;12634;50.852;5.676;2023-06-26T01:36:25;21.50;99.90
24468;DHT22;12634;50.852;5.676;2023-06-26T01:38:53;21.50;99.90
24468;DHT22;12634;50.852;5.676;2023-06-26T01:41:20;21.50;99.90
24468;DHT22;12634;50.852;5.676;2023-06-26T01:44:03;21.40;99.90
24468;DHT22;12634;50.852;5.676;2023-06-26T01:46:39;21.40;99.90
24468;DHT22;12634;50.852;5.676;2023-06-26T01:49:12;21.40;99.90
24468;DHT22;12634;50.852;5.676;2023-06-26T01:51:45;21.30;99.90
24468;DHT22;12634;50.852;5.676;2023-06-26T01:54:18;21.30;99.90
24468;DHT22;12634;50.852;5.676;2023-06-26T01:56:49;21.30;99.90
24468;DHT22;12634;50.852;5.676;2023-06-26T01:59:21;21.20;99.90
24468;DHT22;12634;50.852;5.676;2023-06-26T02:01:49;21.10;99.90
24468;DHT22;12634;50.852;5.676;2023-06-26T02:04:16;21.10;99.90
24468;DHT22;12634;50.852;5.676;2023-06-26T02:06:43;21.00;99.90
24468;DHT22;12634;50.852;5.676;2023-06-26T02:09:10;20.90;99.90
24468;DHT22;12634;50.852;5.676;2023-06-26T02:11:38;20.80;99.90
24468;DHT22;12634;50.852;5.676;2023-06-26T02:14:05;20.70;99.90
24468;DHT22;12634;50.852;5.676;2023-06-26T02:16:34;20.60;99.90
24468;DHT22;12634;50.852;5.676;2023-06-26T02:19:01;20.60;99.90
24468;DHT22;12634;50.852;5.676;2023-06-26T02:21:28;20.40;99.90
24468;DHT22;12634;50.852;5.676;2023-06-26T02:23:56;20.40;99.90
24468;DHT22;12634;50.852;5.676;2023-06-26T02:26:23;20.50;99.90
24468;DHT22;12634;50.852;5.676;2023-06-26T02:28:50;20.40;99.90
24468;DHT22;12634;50.852;5.676;2023-06-26T02:31:17;20.50;99.90
24468;DHT22;12634;50.852;5.676;2023-06-26T02:33:46;20.40;99.90
24468;DHT22;12634;50.852;5.676;2023-06-26T02:36:13;20.30;99.90
24468;DHT22;12634;50.852;5.676;2023-06-26T02:38:40;20.20;99.90
24468;DHT22;12634;50.852;5.676;2023-06-26T02:41:07;20.20;99.90
24468;DHT22;12634;50.852;5.676;2023-06-26T02:43:34;20.10;99.90
24468;DHT22;12634;50.852;5.676;2023-06-26T02:46:01;20.10;99.90
24468;DHT22;12634;50.852;5.676;2023-06-26T02:48:29;20.20;99.90
24468;DHT22;12634;50.852;5.676;2023-06-26T02:50:58;20.10;99.90
24468;DHT22;12634;50.852;5.676;2023-06-26T02:53:25;20.00;99.90
24468;DHT22;12634;50.852;5.676;2023-06-26T02:55:52;20.00;99.90
24468;DHT22;12634;50.852;5.676;2023-06-26T02:58:20;20.10;99.90
24468;DHT22;12634;50.852;5.676;2023-06-26T03:00:47;20.00;99.90
24468;DHT22;12634;50.852;5.676;2023-06-26T03:03:15;20.00;99.90
24468;DHT22;12634;50.852;5.676;2023-06-26T03:05:42;20.00;99.90
24468;DHT22;12634;50.852;5.676;2023-06-26T03:08:10;19.90;99.90
24468;DHT22;12634;50.852;5.676;2023-06-26T03:10:38;19.80;99.90
24468;DHT22;12634;50.852;5.676;2023-06-26T03:13:05;19.80;99.90
24468;DHT22;12634;50.852;5.676;2023-06-26T03:15:32;19.60;99.90
24468;DHT22;12634;50.852;5.676;2023-06-26T03:17:59;19.50;99.90
24468;DHT22;12634;50.852;5.676;2023-06-26T03:20:26;19.50;99.90
24468;DHT22;12634;50.852;5.676;2023-06-26T03:22:54;19.50;99.90
24468;DHT22;12634;50.852;5.676;2023-06-26T03:25:22;19.50;99.90
24468;DHT22;12634;50.852;5.676;2023-06-26T03:27:49;19.30;99.90
24468;DHT22;12634;50.852;5.676;2023-06-26T03:30:17;19.30;99.90
24468;DHT22;12634;50.852;5.676;2023-06-26T03:32:44;19.30;99.90
24468;DHT22;12634;50.852;5.676;2023-06-26T03:35:11;19.30;99.90
24468;DHT22;12634;50.852;5.676;2023-06-26T03:37:38;19.40;99.90
24468;DHT22;12634;50.852;5.676;2023-06-26T03:40:07;19.40;99.90
24468;DHT22;12634;50.852;5.676;2023-06-26T03:42:35;19.50;99.90
24468;DHT22;12634;50.852;5.676;2023-06-26T03:45:03;19.50;99.90
24468;DHT22;12634;50.852;5.676;2023-06-26T03:47:31;19.40;99.90
24468;DHT22;12634;50.852;5.676;2023-06-26T03:49:58;19.40;99.90
24468;DHT22;12634;50.852;5.676;2023-06-26T03:52:25;19.40;99.90
24468;DHT22;12634;50.852;5.676;2023-06-26T03:54:52;19.30;99.90
24468;DHT22;12634;50.852;5.676;2023-06-26T03:57:19;19.20;99.90
24468;DHT22;12634;50.852;5.676;2023-06-26T03:59:48;19.20;99.90
24468;DHT22;12634;50.852;5.676;2023-06-26T04:02:15;19.10;99.90
24468;DHT22;12634;50.852;5.676;2023-06-26T04:04:43;19.00;99.90
24468;DHT22;12634;50.852;5.676;2023-06-26T04:07:10;19.10;99.90
24468;DHT22;12634;50.852;5.676;2023-06-26T04:09:37;19.10;99.90
24468;DHT22;12634;50.852;5.676;2023-06-26T04:12:06;19.10;99.90
24468;DHT22;12634;50.852;5.676;2023-06-26T04:14:33;19.10;99.90
24468;DHT22;12634;50.852;5.676;2023-06-26T04:17:02;19.10;99.90
24468;DHT22;12634;50.852;5.676;2023-06-26T04:19:29;19.10;99.90
24468;DHT22;12634;50.852;5.676;2023-06-26T04:21:57;19.10;99.90
24468;DHT22;12634;50.852;5.676;2023-06-26T04:24:24;19.10;99.90
24468;DHT22;12634;50.852;5.676;2023-06-26T04:26:51;19.10;99.90
24468;DHT22;12634;50.852;5.676;2023-06-26T04:29:18;19.20;99.90
24468;DHT22;12634;50.852;5.676;2023-06-26T04:31:47;19.20;99.90
24468;DHT22;12634;50.852;5.676;2023-06-26T04:34:15;19.10;99.90
24468;DHT22;12634;50.852;5.676;2023-06-26T04:36:42;19.10;99.90
24468;DHT22;12634;50.852;5.676;2023-06-26T04:39:14;19.10;99.90
24468;DHT22;12634;50.852;5.676;2023-06-26T04:41:42;19.00;99.90
24468;DHT22;12634;50.852;5.676;2023-06-26T04:44:09;19.00;99.90
24468;DHT22;12634;50.852;5.676;2023-06-26T04:46:37;19.00;99.90
24468;DHT22;12634;50.852;5.676;2023-06-26T04:49:06;18.90;99.90
24468;DHT22;12634;50.852;5.676;2023-06-26T04:51:35;18.90;99.90
24468;DHT22;12634;50.852;5.676;2023-06-26T04:54:06;18.80;99.90
24468;DHT22;12634;50.852;5.676;2023-06-26T04:56:34;18.90;99.90
24468;DHT22;12634;50.852;5.676;2023-06-26T04:59:01;18.90;99.90
24468;DHT22;12634;50.852;5.676;2023-06-26T05:01:29;19.00;99.90
24468;DHT22;12634;50.852;5.676;2023-06-26T05:03:58;19.30;99.90
24468;DHT22;12634;50.852;5.676;2023-06-26T05:06:25;19.30;99.90
24468;DHT22;12634;50.852;5.676;2023-06-26T05:08:54;19.40;99.90
24468;DHT22;12634;50.852;5.676;2023-06-26T05:11:21;19.30;99.90
24468;DHT22;12634;50.852;5.676;2023-06-26T05:13:48;19.20;99.90
24468;DHT22;12634;50.852;5.676;2023-06-26T05:16:15;19.00;99.90
24468;DHT22;12634;50.852;5.676;2023-06-26T05:18:43;19.00;99.90
24468;DHT22;12634;50.852;5.676;2023-06-26T05:21:10;19.00;99.90
24468;DHT22;12634;50.852;5.676;2023-06-26T05:23:38;18.90;99.90
24468;DHT22;12634;50.852;5.676;2023-06-26T05:26:07;18.90;99.90
24468;DHT22;12634;50.852;5.676;2023-06-26T05:28:35;18.80;99.90
24468;DHT22;12634;50.852;5.676;2023-06-26T05:31:04;18.80;99.90
24468;DHT22;12634;50.852;5.676;2023-06-26T05:33:31;19.10;99.90
24468;DHT22;12634;50.852;5.676;2023-06-26T05:36:00;19.50;99.90
24468;DHT22;12634;50.852;5.676;2023-06-26T05:38:29;19.60;99.90
24468;DHT22;12634;50.852;5.676;2023-06-26T05:40:57;19.80;99.90
24468;DHT22;12634;50.852;5.676;2023-06-26T05:43:26;19.70;99.90
24468;DHT22;12634;50.852;5.676;2023-06-26T05:45:53;19.60;99.90
24468;DHT22;12634;50.852;5.676;2023-06-26T05:48:20;19.40;99.90
24468;DHT22;12634;50.852;5.676;2023-06-26T05:50:48;19.30;99.90
24468;DHT22;12634;50.852;5.676;2023-06-26T05:53:16;19.30;99.90
24468;DHT22;12634;50.852;5.676;2023-06-26T05:55:43;19.50;99.90
24468;DHT22;12634;50.852;5.676;2023-06-26T05:58:11;19.60;99.90
24468;DHT22;12634;50.852;5.676;2023-06-26T06:00:41;19.80;99.90
24468;DHT22;12634;50.852;5.676;2023-06-26T06:03:09;19.70;99.90
24468;DHT22;12634;50.852;5.676;2023-06-26T06:05:37;19.90;99.90
24468;DHT22;12634;50.852;5.676;2023-06-26T06:08:04;20.20;99.90
24468;DHT22;12634;50.852;5.676;2023-06-26T06:10:31;20.60;99.90
24468;DHT22;12634;50.852;5.676;2023-06-26T06:12:58;20.70;99.90
24468;DHT22;12634;50.852;5.676;2023-06-26T06:15:26;20.60;99.90
24468;DHT22;12634;50.852;5.676;2023-06-26T06:17:54;20.40;99.90
24468;DHT22;12634;50.852;5.676;2023-06-26T06:20:21;20.90;99.90
24468;DHT22;12634;50.852;5.676;2023-06-26T06:22:49;20.70;99.90
24468;DHT22;12634;50.852;5.676;2023-06-26T06:25:16;20.70;99.90
24468;DHT22;12634;50.852;5.676;2023-06-26T06:27:44;20.80;99.90
24468;DHT22;12634;50.852;5.676;2023-06-26T06:30:12;20.40;99.90
24468;DHT22;12634;50.852;5.676;2023-06-26T06:32:39;20.20;99.90
24468;DHT22;12634;50.852;5.676;2023-06-26T06:35:08;20.10;99.90
24468;DHT22;12634;50.852;5.676;2023-06-26T06:37:36;20.10;99.90
24468;DHT22;12634;50.852;5.676;2023-06-26T06:40:05;20.60;99.90
24468;DHT22;12634;50.852;5.676;2023-06-26T06:42:34;21.20;99.90
24468;DHT22;12634;50.852;5.676;2023-06-26T06:45:02;21.70;99.90
24468;DHT22;12634;50.852;5.676;2023-06-26T06:47:29;21.80;99.90
24468;DHT22;12634;50.852;5.676;2023-06-26T06:49:56;22.40;99.90
24468;DHT22;12634;50.852;5.676;2023-06-26T06:52:25;21.30;99.90
24468;DHT22;12634;50.852;5.676;2023-06-26T06:54:54;21.30;99.90
24468;DHT22;12634;50.852;5.676;2023-06-26T06:57:25;21.70;99.90
24468;DHT22;12634;50.852;5.676;2023-06-26T06:59:52;21.10;99.90
24468;DHT22;12634;50.852;5.676;2023-06-26T07:02:19;21.90;99.90
24468;DHT22;12634;50.852;5.676;2023-06-26T07:04:46;22.30;99.90
24468;DHT22;12634;50.852;5.676;2023-06-26T07:07:17;22.30;99.90
24468;DHT22;12634;50.852;5.676;2023-06-26T07:09:46;21.80;99.90
24468;DHT22;12634;50.852;5.676;2023-06-26T07:12:13;21.80;99.90
24468;DHT22;12634;50.852;5.676;2023-06-26T07:14:40;21.80;99.90
24468;DHT22;12634;50.852;5.676;2023-06-26T07:17:07;21.60;99.90
24468;DHT22;12634;50.852;5.676;2023-06-26T07:19:35;21.90;99.90
24468;DHT22;12634;50.852;5.676;2023-06-26T07:22:02;21.80;99.90
24468;DHT22;12634;50.852;5.676;2023-06-26T07:24:29;21.20;99.90
24468;DHT22;12634;50.852;5.676;2023-06-26T07:26:59;21.30;99.90
24468;DHT22;12634;50.852;5.676;2023-06-26T07:29:27;21.80;99.90
24468;DHT22;12634;50.852;5.676;2023-06-26T07:31:54;22.10;99.90
24468;DHT22;12634;50.852;5.676;2023-06-26T07:34:22;22.50;99.90
24468;DHT22;12634;50.852;5.676;2023-06-26T07:36:49;22.50;99.90
24468;DHT22;12634;50.852;5.676;2023-06-26T07:39:16;23.00;99.90
24468;DHT22;12634;50.852;5.676;2023-06-26T07:41:43;23.40;99.90
24468;DHT22;12634;50.852;5.676;2023-06-26T07:44:12;23.00;99.90
24468;DHT22;12634;50.852;5.676;2023-06-26T07:46:40;21.90;99.90
24468;DHT22;12634;50.852;5.676;2023-06-26T07:49:07;21.50;99.90
24468;DHT22;12634;50.852;5.676;2023-06-26T07:51:34;22.70;99.90
24468;DHT22;12634;50.852;5.676;2023-06-26T07:54:01;23.50;99.90
24468;DHT22;12634;50.852;5.676;2023-06-26T07:56:28;23.10;99.90
24468;DHT22;12634;50.852;5.676;2023-06-26T07:58:56;22.20;99.90
24468;DHT22;12634;50.852;5.676;2023-06-26T08:01:25;22.10;99.90
24468;DHT22;12634;50.852;5.676;2023-06-26T08:03:52;23.40;99.90
24468;DHT22;12634;50.852;5.676;2023-06-26T08:06:20;23.50;99.90
24468;DHT22;12634;50.852;5.676;2023-06-26T08:08:47;23.70;99.90
24468;DHT22;12634;50.852;5.676;2023-06-26T08:11:14;23.40;99.90
24468;DHT22;12634;50.852;5.676;2023-06-26T08:13:41;23.70;99.90
24468;DHT22;12634;50.852;5.676;2023-06-26T08:16:09;23.50;99.90
24468;DHT22;12634;50.852;5.676;2023-06-26T08:18:37;23.80;99.90
24468;DHT22;12634;50.852;5.676;2023-06-26T08:21:04;23.20;99.90
24468;DHT22;12634;50.852;5.676;2023-06-26T08:23:31;23.30;99.90
24468;DHT22;12634;50.852;5.676;2023-06-26T08:25:59;24.20;99.90
24468;DHT22;12634;50.852;5.676;2023-06-26T08:28:26;23.90;99.90
24468;DHT22;12634;50.852;5.676;2023-06-26T08:30:53;24.10;99.90
24468;DHT22;12634;50.852;5.676;2023-06-26T08:33:20;23.70;99.90
24468;DHT22;12634;50.852;5.676;2023-06-26T08:35:50;23.00;99.90
24468;DHT22;12634;50.852;5.676;2023-06-26T08:38:17;23.00;99.90
24468;DHT22;12634;50.852;5.676;2023-06-26T08:40:47;23.60;99.90
24468;DHT22;12634;50.852;5.676;2023-06-26T08:43:14;23.30;99.90
24468;DHT22;12634;50.852;5.676;2023-06-26T08:45:42;23.40;99.90
24468;DHT22;12634;50.852;5.676;2023-06-26T08:48:09;23.90;99.90
24468;DHT22;12634;50.852;5.676;2023-06-26T08:50:38;23.40;99.90
24468;DHT22;12634;50.852;5.676;2023-06-26T08:53:20;23.20;99.90
24468;DHT22;12634;50.852;5.676;2023-06-26T08:55:52;23.50;99.90
24468;DHT22;12634;50.852;5.676;2023-06-26T08:58:20;24.20;99.90
24468;DHT22;12634;50.852;5.676;2023-06-26T09:00:47;24.70;99.90
24468;DHT22;12634;50.852;5.676;2023-06-26T09:03:15;24.70;99.90
24468;DHT22;12634;50.852;5.676;2023-06-26T09:05:43;23.30;99.90
24468;DHT22;12634;50.852;5.676;2023-06-26T09:08:11;23.70;99.90
24468;DHT22;12634;50.852;5.676;2023-06-26T09:10:39;23.90;99.90
24468;DHT22;12634;50.852;5.676;2023-06-26T09:13:06;24.10;99.90
24468;DHT22;12634;50.852;5.676;2023-06-26T09:15:37;24.70;99.90
24468;DHT22;12634;50.852;5.676;2023-06-26T09:18:05;24.30;99.90
24468;DHT22;12634;50.852;5.676;2023-06-26T09:20:33;24.40;99.90
24468;DHT22;12634;50.852;5.676;2023-06-26T09:23:01;24.40;99.90
24468;DHT22;12634;50.852;5.676;2023-06-26T09:25:30;24.20;99.90
24468;DHT22;12634;50.852;5.676;2023-06-26T09:27:57;24.70;99.90
24468;DHT22;12634;50.852;5.676;2023-06-26T09:30:25;24.70;99.90
24468;DHT22;12634;50.852;5.676;2023-06-26T09:32:52;25.00;99.90
24468;DHT22;12634;50.852;5.676;2023-06-26T09:35:21;24.50;99.90
24468;DHT22;12634;50.852;5.676;2023-06-26T09:37:48;24.20;99.90
24468;DHT22;12634;50.852;5.676;2023-06-26T09:40:16;23.70;99.90
24468;DHT22;12634;50.852;5.676;2023-06-26T09:42:44;24.30;99.90
24468;DHT22;12634;50.852;5.676;2023-06-26T09:45:18;24.60;99.90
24468;DHT22;12634;50.852;5.676;2023-06-26T09:47:46;25.10;99.90
24468;DHT22;12634;50.852;5.676;2023-06-26T09:50:21;25.30;99.90
24468;DHT22;12634;50.852;5.676;2023-06-26T09:52:51;25.10;99.90
24468;DHT22;12634;50.852;5.676;2023-06-26T09:55:19;24.80;99.90
24468;DHT22;12634;50.852;5.676;2023-06-26T09:57:49;24.50;99.90
24468;DHT22;12634;50.852;5.676;2023-06-26T10:00:18;24.90;99.90
24468;DHT22;12634;50.852;5.676;2023-06-26T10:02:46;24.60;99.90
24468;DHT22;12634;50.852;5.676;2023-06-26T10:05:13;25.00;99.90
24468;DHT22;12634;50.852;5.676;2023-06-26T10:07:40;25.40;99.90
24468;DHT22;12634;50.852;5.676;2023-06-26T10:10:08;25.20;99.90
24468;DHT22;12634;50.852;5.676;2023-06-26T10:12:37;25.10;99.90
24468;DHT22;12634;50.852;5.676;2023-06-26T10:15:06;25.60;99.90
24468;DHT22;12634;50.852;5.676;2023-06-26T10:17:39;24.90;99.90
24468;DHT22;12634;50.852;5.676;2023-06-26T10:20:08;23.70;99.90
24468;DHT22;12634;50.852;5.676;2023-06-26T10:22:40;24.30;99.90
24468;DHT22;12634;50.852;5.676;2023-06-26T10:25:09;24.10;99.90
24468;DHT22;12634;50.852;5.676;2023-06-26T10:27:41;24.50;99.90
24468;DHT22;12634;50.852;5.676;2023-06-26T10:30:15;24.30;99.90
24468;DHT22;12634;50.852;5.676;2023-06-26T10:32:43;24.90;99.90
24468;DHT22;12634;50.852;5.676;2023-06-26T10:35:11;25.20;99.90
24468;DHT22;12634;50.852;5.676;2023-06-26T10:37:42;25.10;99.90
24468;DHT22;12634;50.852;5.676;2023-06-26T10:40:11;24.90;99.90
24468;DHT22;12634;50.852;5.676;2023-06-26T10:42:39;25.40;99.90
24468;DHT22;12634;50.852;5.676;2023-06-26T10:45:14;25.90;99.90
24468;DHT22;12634;50.852;5.676;2023-06-26T10:47:42;25.80;99.90
24468;DHT22;12634;50.852;5.676;2023-06-26T10:50:19;25.60;99.90
24468;DHT22;12634;50.852;5.676;2023-06-26T10:53:08;24.80;99.90
24468;DHT22;12634;50.852;5.676;2023-06-26T10:55:36;24.80;99.90
24468;DHT22;12634;50.852;5.676;2023-06-26T10:58:03;26.10;99.90
24468;DHT22;12634;50.852;5.676;2023-06-26T11:00:32;25.60;99.90
24468;DHT22;12634;50.852;5.676;2023-06-26T11:03:00;25.90;99.90
24468;DHT22;12634;50.852;5.676;2023-06-26T11:05:28;25.30;99.90
24468;DHT22;12634;50.852;5.676;2023-06-26T11:08:05;24.00;99.90
24468;DHT22;12634;50.852;5.676;2023-06-26T11:10:49;24.10;99.90
24468;DHT22;12634;50.852;5.676;2023-06-26T11:13:18;25.10;99.90
24468;DHT22;12634;50.852;5.676;2023-06-26T11:15:47;25.70;99.90
24468;DHT22;12634;50.852;5.676;2023-06-26T11:18:16;25.70;99.90
24468;DHT22;12634;50.852;5.676;2023-06-26T11:20:44;25.10;99.90
24468;DHT22;12634;50.852;5.676;2023-06-26T11:23:12;25.50;99.90
24468;DHT22;12634;50.852;5.676;2023-06-26T11:25:39;25.00;99.90
24468;DHT22;12634;50.852;5.676;2023-06-26T11:28:09;25.30;99.90
24468;DHT22;12634;50.852;5.676;2023-06-26T11:30:37;24.60;99.90
24468;DHT22;12634;50.852;5.676;2023-06-26T11:33:09;24.30;99.90
24468;DHT22;12634;50.852;5.676;2023-06-26T11:35:37;25.30;99.90
24468;DHT22;12634;50.852;5.676;2023-06-26T11:38:04;25.30;99.10
24468;DHT22;12634;50.852;5.676;2023-06-26T11:40:33;25.90;99.00
24468;DHT22;12634;50.852;5.676;2023-06-26T11:43:01;26.10;98.10
24468;DHT22;12634;50.852;5.676;2023-06-26T11:45:29;26.00;98.60
24468;DHT22;12634;50.852;5.676;2023-06-26T11:47:57;27.30;98.20
24468;DHT22;12634;50.852;5.676;2023-06-26T11:50:26;26.20;99.10
24468;DHT22;12634;50.852;5.676;2023-06-26T11:52:54;27.10;99.50
24468;DHT22;12634;50.852;5.676;2023-06-26T11:55:22;26.10;95.10
24468;DHT22;12634;50.852;5.676;2023-06-26T11:57:49;25.60;96.50
24468;DHT22;12634;50.852;5.676;2023-06-26T12:00:17;25.30;94.70
24468;DHT22;12634;50.852;5.676;2023-06-26T12:02:45;25.40;96.80
24468;DHT22;12634;50.852;5.676;2023-06-26T12:05:14;24.80;97.30
24468;DHT22;12634;50.852;5.676;2023-06-26T12:07:44;24.90;98.40
24468;DHT22;12634;50.852;5.676;2023-06-26T12:10:12;24.90;99.90
24468;DHT22;12634;50.852;5.676;2023-06-26T12:12:40;24.60;99.90
24468;DHT22;12634;50.852;5.676;2023-06-26T12:15:10;24.00;99.70
24468;DHT22;12634;50.852;5.676;2023-06-26T12:17:38;24.10;99.90
24468;DHT22;12634;50.852;5.676;2023-06-26T12:20:17;25.30;97.80
24468;DHT22;12634;50.852;5.676;2023-06-26T12:22:47;25.40;96.10
24468;DHT22;12634;50.852;5.676;2023-06-26T12:25:14;25.70;98.00
24468;DHT22;12634;50.852;5.676;2023-06-26T12:27:44;25.60;95.10
24468;DHT22;12634;50.852;5.676;2023-06-26T12:30:13;26.70;99.40
24468;DHT22;12634;50.852;5.676;2023-06-26T12:32:44;26.80;95.30
24468;DHT22;12634;50.852;5.676;2023-06-26T12:35:12;27.40;95.20
24468;DHT22;12634;50.852;5.676;2023-06-26T12:37:42;26.50;94.70
24468;DHT22;12634;50.852;5.676;2023-06-26T12:40:18;26.30;96.40
24468;DHT22;12634;50.852;5.676;2023-06-26T12:42:47;25.50;93.70
24468;DHT22;12634;50.852;5.676;2023-06-26T12:45:15;26.00;94.40
24468;DHT22;12634;50.852;5.676;2023-06-26T12:47:42;26.50;93.80
24468;DHT22;12634;50.852;5.676;2023-06-26T12:50:12;27.30;96.00
24468;DHT22;12634;50.852;5.676;2023-06-26T12:52:39;27.10;88.80
24468;DHT22;12634;50.852;5.676;2023-06-26T12:55:07;26.50;90.70
24468;DHT22;12634;50.852;5.676;2023-06-26T12:57:36;25.60;91.10
24468;DHT22;12634;50.852;5.676;2023-06-26T13:00:04;24.30;95.90
24468;DHT22;12634;50.852;5.676;2023-06-26T13:02:31;25.20;96.50
24468;DHT22;12634;50.852;5.676;2023-06-26T13:04:58;26.70;92.60
24468;DHT22;12634;50.852;5.676;2023-06-26T13:07:26;28.10;95.40
24468;DHT22;12634;50.852;5.676;2023-06-26T13:09:53;27.70;84.10
24468;DHT22;12634;50.852;5.676;2023-06-26T13:12:21;26.10;88.60
24468;DHT22;12634;50.852;5.676;2023-06-26T13:14:49;26.30;91.10
24468;DHT22;12634;50.852;5.676;2023-06-26T13:17:17;25.90;90.40
24468;DHT22;12634;50.852;5.676;2023-06-26T13:19:46;26.70;92.80
24468;DHT22;12634;50.852;5.676;2023-06-26T13:22:14;27.10;91.10
24468;DHT22;12634;50.852;5.676;2023-06-26T13:24:41;26.10;92.60
24468;DHT22;12634;50.852;5.676;2023-06-26T13:27:08;25.90;94.30
24468;DHT22;12634;50.852;5.676;2023-06-26T13:29:35;24.60;94.60
24468;DHT22;12634;50.852;5.676;2023-06-26T13:32:05;24.20;94.90
24468;DHT22;12634;50.852;5.676;2023-06-26T13:34:32;25.30;96.00
24468;DHT22;12634;50.852;5.676;2023-06-26T13:36:59;26.00;91.90
24468;DHT22;12634;50.852;5.676;2023-06-26T13:39:27;26.60;92.70
24468;DHT22;12634;50.852;5.676;2023-06-26T13:41:54;27.50;90.90
24468;DHT22;12634;50.852;5.676;2023-06-26T13:44:21;27.80;92.10
24468;DHT22;12634;50.852;5.676;2023-06-26T13:46:48;26.20;90.30
24468;DHT22;12634;50.852;5.676;2023-06-26T13:49:17;25.80;91.70
24468;DHT22;12634;50.852;5.676;2023-06-26T13:51:44;25.00;91.50
24468;DHT22;12634;50.852;5.676;2023-06-26T13:54:12;24.40;93.50
24468;DHT22;12634;50.852;5.676;2023-06-26T13:56:39;24.00;95.60
24468;DHT22;12634;50.852;5.676;2023-06-26T13:59:07;25.40;93.60
24468;DHT22;12634;50.852;5.676;2023-06-26T14:01:34;25.70;91.70
24468;DHT22;12634;50.852;5.676;2023-06-26T14:04:01;26.50;92.10
24468;DHT22;12634;50.852;5.676;2023-06-26T14:06:30;26.40;90.60
24468;DHT22;12634;50.852;5.676;2023-06-26T14:08:58;27.00;91.30
24468;DHT22;12634;50.852;5.676;2023-06-26T14:11:25;26.00;90.60
24468;DHT22;12634;50.852;5.676;2023-06-26T14:13:52;25.30;93.80
24468;DHT22;12634;50.852;5.676;2023-06-26T14:16:20;24.60;93.30
24468;DHT22;12634;50.852;5.676;2023-06-26T14:18:47;24.60;96.50
24468;DHT22;12634;50.852;5.676;2023-06-26T14:21:14;24.40;95.40
24468;DHT22;12634;50.852;5.676;2023-06-26T14:23:43;24.30;95.00
24468;DHT22;12634;50.852;5.676;2023-06-26T14:26:10;24.10;96.40
24468;DHT22;12634;50.852;5.676;2023-06-26T14:28:38;23.80;96.80
24468;DHT22;12634;50.852;5.676;2023-06-26T14:31:06;23.80;97.50
24468;DHT22;12634;50.852;5.676;2023-06-26T14:33:33;24.20;97.40
24468;DHT22;12634;50.852;5.676;2023-06-26T14:36:00;25.30;95.70
24468;DHT22;12634;50.852;5.676;2023-06-26T14:38:27;26.20;91.60
24468;DHT22;12634;50.852;5.676;2023-06-26T14:40:56;26.50;90.00
24468;DHT22;12634;50.852;5.676;2023-06-26T14:43:23;26.80;90.40
24468;DHT22;12634;50.852;5.676;2023-06-26T14:45:50;26.90;89.50
24468;DHT22;12634;50.852;5.676;2023-06-26T14:48:17;26.60;86.70
24468;DHT22;12634;50.852;5.676;2023-06-26T14:50:45;26.10;88.60
24468;DHT22;12634;50.852;5.676;2023-06-26T14:53:12;25.60;91.00
24468;DHT22;12634;50.852;5.676;2023-06-26T14:55:40;25.10;92.60
24468;DHT22;12634;50.852;5.676;2023-06-26T14:58:08;25.50;91.80
24468;DHT22;12634;50.852;5.676;2023-06-26T15:00:36;25.40;87.40
24468;DHT22;12634;50.852;5.676;2023-06-26T15:03:03;25.40;88.30
24468;DHT22;12634;50.852;5.676;2023-06-26T15:05:30;25.80;90.50
24468;DHT22;12634;50.852;5.676;2023-06-26T15:07:57;26.40;88.50
24468;DHT22;12634;50.852;5.676;2023-06-26T15:10:25;26.10;87.30
24468;DHT22;12634;50.852;5.676;2023-06-26T15:12:52;26.40;86.80
24468;DHT22;12634;50.852;5.676;2023-06-26T15:15:21;26.70;89.70
24468;DHT22;12634;50.852;5.676;2023-06-26T15:17:48;25.80;92.40
24468;DHT22;12634;50.852;5.676;2023-06-26T15:20:15;24.90;93.50
24468;DHT22;12634;50.852;5.676;2023-06-26T15:22:42;24.80;92.30
24468;DHT22;12634;50.852;5.676;2023-06-26T15:25:10;24.70;91.40
24468;DHT22;12634;50.852;5.676;2023-06-26T15:27:37;24.60;94.70
24468;DHT22;12634;50.852;5.676;2023-06-26T15:30:06;24.40;91.80
24468;DHT22;12634;50.852;5.676;2023-06-26T15:32:35;25.10;94.40
24468;DHT22;12634;50.852;5.676;2023-06-26T15:35:02;25.40;89.10
24468;DHT22;12634;50.852;5.676;2023-06-26T15:37:29;24.80;90.00